sensor_id;sensor_type;location;lat;lon;timestamp;P1;durP1;ratioP1;P2;durP2;ratioP2
22040;SDS011;11184;52.444;13.578;2022-07-29T00:01:49;5.72;;;2.53;;
22040;SDS011;11184;52.444;13.578;2022-07-29T00:04:36;9.30;;;2.92;;
22040;SDS011;11184;52.444;13.578;2022-07-29T00:07:21;14.60;;;2.50;;
22040;SDS011;11184;52.444;13.578;2022-07-29T00:10:05;6.25;;;2.92;;
22040;SDS011;11184;52.444;13.578;2022-07-29T00:12:50;5.03;;;2.35;;
22040;SDS011;11184;52.444;13.578;2022-07-29T00:15:35;3.47;;;2.67;;
22040;SDS011;11184;52.444;13.578;2022-07-29T00:18:20;10.07;;;2.50;;
22040;SDS011;11184;52.444;13.578;2022-07-29T00:21:04;5.72;;;2.22;;
22040;SDS011;11184;52.444;13.578;2022-07-29T00:23:49;6.40;;;2.17;;
22040;SDS011;11184;52.444;13.578;2022-07-29T00:26:33;5.55;;;2.45;;
22040;SDS011;11184;52.444;13.578;2022-07-29T00:29:18;4.60;;;2.80;;
22040;SDS011;11184;52.444;13.578;2022-07-29T00:32:03;5.35;;;3.03;;
22040;SDS011;11184;52.444;13.578;2022-07-29T00:34:48;7.47;;;2.38;;
22040;SDS011;11184;52.444;13.578;2022-07-29T00:37:51;4.32;;;3.10;;
22040;SDS011;11184;52.444;13.578;2022-07-29T00:40:36;6.32;;;2.35;;
22040;SDS011;11184;52.444;13.578;2022-07-29T00:43:21;6.22;;;3.25;;
22040;SDS011;11184;52.444;13.578;2022-07-29T00:46:05;7.25;;;2.50;;
22040;SDS011;11184;52.444;13.578;2022-07-29T00:48:50;6.90;;;2.97;;
22040;SDS011;11184;52.444;13.578;2022-07-29T00:51:35;4.47;;;2.78;;
22040;SDS011;11184;52.444;13.578;2022-07-29T00:54:20;3.90;;;2.55;;
22040;SDS011;11184;52.444;13.578;2022-07-29T00:57:06;5.85;;;2.83;;
22040;SDS011;11184;52.444;13.578;2022-07-29T00:59:51;9.38;;;2.78;;
22040;SDS011;11184;52.444;13.578;2022-07-29T01:02:35;6.72;;;2.78;;
22040;SDS011;11184;52.444;13.578;2022-07-29T01:05:20;5.30;;;3.22;;
22040;SDS011;11184;52.444;13.578;2022-07-29T01:08:05;7.35;;;3.47;;
22040;SDS011;11184;52.444;13.578;2022-07-29T01:10:51;5.75;;;3.95;;
22040;SDS011;11184;52.444;13.578;2022-07-29T01:13:36;8.90;;;3.42;;
22040;SDS011;11184;52.444;13.578;2022-07-29T01:16:23;5.20;;;3.40;;
22040;SDS011;11184;52.444;13.578;2022-07-29T01:19:20;8.32;;;3.63;;
22040;SDS011;11184;52.444;13.578;2022-07-29T01:22:19;4.85;;;3.20;;
22040;SDS011;11184;52.444;13.578;2022-07-29T01:25:20;7.13;;;2.97;;
22040;SDS011;11184;52.444;13.578;2022-07-29T01:31:36;6.25;;;3.38;;
22040;SDS011;11184;52.444;13.578;2022-07-29T01:34:25;11.48;;;3.08;;
22040;SDS011;11184;52.444;13.578;2022-07-29T01:37:24;5.80;;;3.70;;
22040;SDS011;11184;52.444;13.578;2022-07-29T01:40:20;4.95;;;3.10;;
22040;SDS011;11184;52.444;13.578;2022-07-29T01:43:09;4.05;;;2.78;;
22040;SDS011;11184;52.444;13.578;2022-07-29T01:45:59;8.10;;;3.67;;
22040;SDS011;11184;52.444;13.578;2022-07-29T01:48:47;8.48;;;4.05;;
22040;SDS011;11184;52.444;13.578;2022-07-29T01:51:37;4.50;;;3.22;;
22040;SDS011;11184;52.444;13.578;2022-07-29T01:54:32;5.45;;;3.25;;
22040;SDS011;11184;52.444;13.578;2022-07-29T01:57:19;5.03;;;3.15;;
22040;SDS011;11184;52.444;13.578;2022-07-29T02:00:05;8.70;;;3.63;;
22040;SDS011;11184;52.444;13.578;2022-07-29T02:02:50;3.78;;;3.35;;
22040;SDS011;11184;52.444;13.578;2022-07-29T02:05:36;4.93;;;3.40;;
22040;SDS011;11184;52.444;13.578;2022-07-29T02:08:22;5.57;;;3.63;;
22040;SDS011;11184;52.444;13.578;2022-07-29T02:11:08;7.15;;;3.42;;
22040;SDS011;11184;52.444;13.578;2022-07-29T02:13:53;6.45;;;2.97;;
22040;SDS011;11184;52.444;13.578;2022-07-29T02:16:39;6.10;;;3.65;;
22040;SDS011;11184;52.444;13.578;2022-07-29T02:19:24;5.63;;;2.97;;
22040;SDS011;11184;52.444;13.578;2022-07-29T02:22:10;5.32;;;3.47;;
22040;SDS011;11184;52.444;13.578;2022-07-29T02:24:57;5.53;;;3.03;;
22040;SDS011;11184;52.444;13.578;2022-07-29T02:27:42;7.88;;;3.42;;
22040;SDS011;11184;52.444;13.578;2022-07-29T02:30:27;3.85;;;3.17;;
22040;SDS011;11184;52.444;13.578;2022-07-29T02:33:14;8.63;;;4.07;;
22040;SDS011;11184;52.444;13.578;2022-07-29T02:36:00;5.00;;;3.45;;
22040;SDS011;11184;52.444;13.578;2022-07-29T02:38:45;10.13;;;4.07;;
22040;SDS011;11184;52.444;13.578;2022-07-29T02:41:44;6.13;;;3.72;;
22040;SDS011;11184;52.444;13.578;2022-07-29T02:47:01;6.25;;;3.47;;
22040;SDS011;11184;52.444;13.578;2022-07-29T02:53:02;6.28;;;3.35;;
22040;SDS011;11184;52.444;13.578;2022-07-29T02:55:51;7.45;;;4.13;;
22040;SDS011;11184;52.444;13.578;2022-07-29T02:58:39;5.20;;;3.20;;
22040;SDS011;11184;52.444;13.578;2022-07-29T03:01:25;4.18;;;3.47;;
22040;SDS011;11184;52.444;13.578;2022-07-29T03:04:12;5.68;;;3.05;;
22040;SDS011;11184;52.444;13.578;2022-07-29T03:06:58;6.35;;;3.42;;
22040;SDS011;11184;52.444;13.578;2022-07-29T03:09:42;4.93;;;3.55;;
22040;SDS011;11184;52.444;13.578;2022-07-29T03:12:28;6.20;;;3.40;;
22040;SDS011;11184;52.444;13.578;2022-07-29T03:15:13;5.57;;;3.80;;
22040;SDS011;11184;52.444;13.578;2022-07-29T03:17:58;4.30;;;3.42;;
22040;SDS011;11184;52.444;13.578;2022-07-29T03:20:44;7.15;;;3.22;;
22040;SDS011;11184;52.444;13.578;2022-07-29T03:23:29;4.55;;;3.00;;
22040;SDS011;11184;52.444;13.578;2022-07-29T03:26:13;6.22;;;3.85;;
22040;SDS011;11184;52.444;13.578;2022-07-29T03:28:58;7.45;;;3.15;;
22040;SDS011;11184;52.444;13.578;2022-07-29T03:31:42;6.07;;;3.65;;
22040;SDS011;11184;52.444;13.578;2022-07-29T03:34:27;5.45;;;2.92;;
22040;SDS011;11184;52.444;13.578;2022-07-29T03:37:12;4.78;;;3.10;;
22040;SDS011;11184;52.444;13.578;2022-07-29T03:39:57;5.22;;;3.65;;
22040;SDS011;11184;52.444;13.578;2022-07-29T03:42:41;5.32;;;3.70;;
22040;SDS011;11184;52.444;13.578;2022-07-29T03:45:26;3.90;;;3.38;;
22040;SDS011;11184;52.444;13.578;2022-07-29T03:48:14;5.55;;;3.72;;
22040;SDS011;11184;52.444;13.578;2022-07-29T03:50:59;3.22;;;2.90;;
22040;SDS011;11184;52.444;13.578;2022-07-29T03:53:44;6.20;;;3.85;;
22040;SDS011;11184;52.444;13.578;2022-07-29T03:56:29;4.40;;;3.47;;
22040;SDS011;11184;52.444;13.578;2022-07-29T03:59:15;6.53;;;3.88;;
22040;SDS011;11184;52.444;13.578;2022-07-29T04:02:02;4.43;;;3.30;;
22040;SDS011;11184;52.444;13.578;2022-07-29T04:04:47;5.93;;;3.22;;
22040;SDS011;11184;52.444;13.578;2022-07-29T04:07:32;5.85;;;3.80;;
22040;SDS011;11184;52.444;13.578;2022-07-29T04:10:17;9.50;;;2.95;;
22040;SDS011;11184;52.444;13.578;2022-07-29T04:13:06;6.03;;;3.20;;
22040;SDS011;11184;52.444;13.578;2022-07-29T04:15:50;6.10;;;2.90;;
22040;SDS011;11184;52.444;13.578;2022-07-29T04:18:35;5.35;;;2.80;;
22040;SDS011;11184;52.444;13.578;2022-07-29T04:21:19;4.82;;;3.67;;
22040;SDS011;11184;52.444;13.578;2022-07-29T04:24:04;5.22;;;4.20;;
22040;SDS011;11184;52.444;13.578;2022-07-29T04:26:49;3.75;;;3.45;;
22040;SDS011;11184;52.444;13.578;2022-07-29T04:29:34;5.15;;;3.70;;
22040;SDS011;11184;52.444;13.578;2022-07-29T04:32:18;6.45;;;3.67;;
22040;SDS011;11184;52.444;13.578;2022-07-29T04:35:03;5.03;;;2.50;;
22040;SDS011;11184;52.444;13.578;2022-07-29T04:37:48;6.07;;;3.22;;
22040;SDS011;11184;52.444;13.578;2022-07-29T04:40:33;8.57;;;3.88;;
22040;SDS011;11184;52.444;13.578;2022-07-29T04:43:18;5.78;;;3.33;;
22040;SDS011;11184;52.444;13.578;2022-07-29T04:46:03;5.05;;;3.45;;
22040;SDS011;11184;52.444;13.578;2022-07-29T04:48:48;11.07;;;3.22;;
22040;SDS011;11184;52.444;13.578;2022-07-29T04:51:33;5.07;;;3.05;;
22040;SDS011;11184;52.444;13.578;2022-07-29T04:54:18;4.85;;;3.00;;
22040;SDS011;11184;52.444;13.578;2022-07-29T04:57:03;6.75;;;3.35;;
22040;SDS011;11184;52.444;13.578;2022-07-29T04:59:47;4.13;;;2.92;;
22040;SDS011;11184;52.444;13.578;2022-07-29T05:02:32;6.35;;;2.55;;
22040;SDS011;11184;52.444;13.578;2022-07-29T05:05:17;7.28;;;3.83;;
22040;SDS011;11184;52.444;13.578;2022-07-29T05:08:02;5.25;;;2.60;;
22040;SDS011;11184;52.444;13.578;2022-07-29T05:10:47;5.80;;;3.25;;
22040;SDS011;11184;52.444;13.578;2022-07-29T05:13:31;5.18;;;2.83;;
22040;SDS011;11184;52.444;13.578;2022-07-29T05:16:17;6.80;;;3.15;;
22040;SDS011;11184;52.444;13.578;2022-07-29T05:19:02;8.02;;;2.90;;
22040;SDS011;11184;52.444;13.578;2022-07-29T05:21:46;6.13;;;3.03;;
22040;SDS011;11184;52.444;13.578;2022-07-29T05:24:31;8.13;;;3.30;;
22040;SDS011;11184;52.444;13.578;2022-07-29T05:27:16;9.20;;;3.05;;
22040;SDS011;11184;52.444;13.578;2022-07-29T05:30:01;6.22;;;3.33;;
22040;SDS011;11184;52.444;13.578;2022-07-29T05:32:45;4.47;;;2.90;;
22040;SDS011;11184;52.444;13.578;2022-07-29T05:35:30;8.13;;;2.53;;
22040;SDS011;11184;52.444;13.578;2022-07-29T05:38:15;8.32;;;2.10;;
22040;SDS011;11184;52.444;13.578;2022-07-29T05:40:59;4.75;;;2.85;;
22040;SDS011;11184;52.444;13.578;2022-07-29T05:43:44;9.75;;;2.78;;
22040;SDS011;11184;52.444;13.578;2022-07-29T05:46:29;5.53;;;2.78;;
22040;SDS011;11184;52.444;13.578;2022-07-29T05:49:14;7.72;;;2.78;;
22040;SDS011;11184;52.444;13.578;2022-07-29T05:51:58;14.20;;;2.95;;
22040;SDS011;11184;52.444;13.578;2022-07-29T05:54:43;5.63;;;2.25;;
22040;SDS011;11184;52.444;13.578;2022-07-29T05:57:27;4.70;;;1.65;;
22040;SDS011;11184;52.444;13.578;2022-07-29T06:00:12;8.13;;;2.72;;
22040;SDS011;11184;52.444;13.578;2022-07-29T06:02:57;4.57;;;2.63;;
22040;SDS011;11184;52.444;13.578;2022-07-29T06:05:42;7.72;;;3.53;;
22040;SDS011;11184;52.444;13.578;2022-07-29T06:08:26;5.03;;;2.50;;
22040;SDS011;11184;52.444;13.578;2022-07-29T06:11:11;9.57;;;3.38;;
22040;SDS011;11184;52.444;13.578;2022-07-29T06:13:55;5.18;;;2.92;;
22040;SDS011;11184;52.444;13.578;2022-07-29T06:16:40;4.90;;;2.25;;
22040;SDS011;11184;52.444;13.578;2022-07-29T06:19:25;11.45;;;3.10;;
22040;SDS011;11184;52.444;13.578;2022-07-29T06:22:09;6.00;;;2.40;;
22040;SDS011;11184;52.444;13.578;2022-07-29T06:24:54;6.47;;;3.42;;
22040;SDS011;11184;52.444;13.578;2022-07-29T06:27:39;8.18;;;3.13;;
22040;SDS011;11184;52.444;13.578;2022-07-29T06:30:23;4.63;;;3.03;;
22040;SDS011;11184;52.444;13.578;2022-07-29T06:33:08;6.07;;;3.10;;
22040;SDS011;11184;52.444;13.578;2022-07-29T06:35:52;7.20;;;1.50;;
22040;SDS011;11184;52.444;13.578;2022-07-29T06:38:37;4.10;;;2.20;;
22040;SDS011;11184;52.444;13.578;2022-07-29T06:41:22;9.73;;;2.38;;
22040;SDS011;11184;52.444;13.578;2022-07-29T06:44:07;3.22;;;2.28;;
22040;SDS011;11184;52.444;13.578;2022-07-29T06:46:51;8.05;;;2.45;;
22040;SDS011;11184;52.444;13.578;2022-07-29T06:49:38;9.93;;;1.85;;
22040;SDS011;11184;52.444;13.578;2022-07-29T06:52:23;6.38;;;2.58;;
22040;SDS011;11184;52.444;13.578;2022-07-29T06:55:08;4.55;;;2.13;;
22040;SDS011;11184;52.444;13.578;2022-07-29T06:57:53;7.70;;;2.00;;
22040;SDS011;11184;52.444;13.578;2022-07-29T07:00:38;3.22;;;2.03;;
22040;SDS011;11184;52.444;13.578;2022-07-29T07:03:22;2.97;;;2.00;;
22040;SDS011;11184;52.444;13.578;2022-07-29T07:06:07;5.40;;;1.80;;
22040;SDS011;11184;52.444;13.578;2022-07-29T07:08:52;8.85;;;3.92;;
22040;SDS011;11184;52.444;13.578;2022-07-29T07:11:36;5.30;;;2.10;;
22040;SDS011;11184;52.444;13.578;2022-07-29T07:14:21;3.17;;;2.08;;
22040;SDS011;11184;52.444;13.578;2022-07-29T07:17:06;4.85;;;1.75;;
22040;SDS011;11184;52.444;13.578;2022-07-29T07:19:51;3.78;;;2.53;;
22040;SDS011;11184;52.444;13.578;2022-07-29T07:22:35;3.03;;;1.48;;
22040;SDS011;11184;52.444;13.578;2022-07-29T07:25:20;6.72;;;4.38;;
22040;SDS011;11184;52.444;13.578;2022-07-29T07:28:05;4.28;;;2.08;;
22040;SDS011;11184;52.444;13.578;2022-07-29T07:30:49;5.13;;;2.00;;
22040;SDS011;11184;52.444;13.578;2022-07-29T07:33:34;5.13;;;1.73;;
22040;SDS011;11184;52.444;13.578;2022-07-29T07:36:18;6.35;;;1.80;;
22040;SDS011;11184;52.444;13.578;2022-07-29T07:39:03;3.38;;;1.67;;
22040;SDS011;11184;52.444;13.578;2022-07-29T07:41:49;2.35;;;1.70;;
22040;SDS011;11184;52.444;13.578;2022-07-29T07:44:33;4.38;;;1.58;;
22040;SDS011;11184;52.444;13.578;2022-07-29T07:47:18;2.35;;;1.65;;
22040;SDS011;11184;52.444;13.578;2022-07-29T07:50:08;3.83;;;1.63;;
22040;SDS011;11184;52.444;13.578;2022-07-29T07:52:53;6.85;;;1.75;;
22040;SDS011;11184;52.444;13.578;2022-07-29T07:55:41;3.40;;;2.28;;
22040;SDS011;11184;52.444;13.578;2022-07-29T07:58:26;2.90;;;1.50;;
22040;SDS011;11184;52.444;13.578;2022-07-29T08:01:10;5.60;;;1.45;;
22040;SDS011;11184;52.444;13.578;2022-07-29T08:03:55;1.95;;;1.40;;
22040;SDS011;11184;52.444;13.578;2022-07-29T08:06:40;10.15;;;1.50;;
22040;SDS011;11184;52.444;13.578;2022-07-29T08:09:25;7.55;;;1.90;;
22040;SDS011;11184;52.444;13.578;2022-07-29T08:12:10;4.40;;;1.90;;
22040;SDS011;11184;52.444;13.578;2022-07-29T08:14:55;2.70;;;1.25;;
22040;SDS011;11184;52.444;13.578;2022-07-29T08:17:39;5.53;;;1.73;;
22040;SDS011;11184;52.444;13.578;2022-07-29T08:20:25;3.40;;;1.23;;
22040;SDS011;11184;52.444;13.578;2022-07-29T08:23:10;3.15;;;1.58;;
22040;SDS011;11184;52.444;13.578;2022-07-29T08:25:54;3.58;;;1.52;;
22040;SDS011;11184;52.444;13.578;2022-07-29T08:28:40;2.72;;;1.45;;
22040;SDS011;11184;52.444;13.578;2022-07-29T08:31:28;3.40;;;1.20;;
22040;SDS011;11184;52.444;13.578;2022-07-29T08:34:13;4.10;;;1.58;;
22040;SDS011;11184;52.444;13.578;2022-07-29T08:36:58;3.30;;;1.50;;
22040;SDS011;11184;52.444;13.578;2022-07-29T08:39:43;5.05;;;1.95;;
22040;SDS011;11184;52.444;13.578;2022-07-29T08:42:27;2.00;;;1.20;;
22040;SDS011;11184;52.444;13.578;2022-07-29T08:45:12;3.30;;;1.52;;
22040;SDS011;11184;52.444;13.578;2022-07-29T08:47:57;5.30;;;1.63;;
22040;SDS011;11184;52.444;13.578;2022-07-29T08:50:42;5.85;;;2.08;;
22040;SDS011;11184;52.444;13.578;2022-07-29T08:53:27;4.82;;;2.10;;
22040;SDS011;11184;52.444;13.578;2022-07-29T08:56:13;4.13;;;1.58;;
22040;SDS011;11184;52.444;13.578;2022-07-29T08:58:58;3.72;;;1.20;;
22040;SDS011;11184;52.444;13.578;2022-07-29T09:01:43;1.98;;;1.45;;
22040;SDS011;11184;52.444;13.578;2022-07-29T09:04:32;4.00;;;1.50;;
22040;SDS011;11184;52.444;13.578;2022-07-29T09:07:18;4.00;;;1.30;;
22040;SDS011;11184;52.444;13.578;2022-07-29T09:10:03;3.15;;;1.73;;
22040;SDS011;11184;52.444;13.578;2022-07-29T09:12:48;3.58;;;1.75;;
22040;SDS011;11184;52.444;13.578;2022-07-29T09:15:33;3.55;;;1.88;;
22040;SDS011;11184;52.444;13.578;2022-07-29T09:18:32;4.35;;;1.65;;
22040;SDS011;11184;52.444;13.578;2022-07-29T09:21:18;3.67;;;1.40;;
22040;SDS011;11184;52.444;13.578;2022-07-29T09:24:21;4.07;;;1.15;;
22040;SDS011;11184;52.444;13.578;2022-07-29T09:27:25;3.10;;;1.50;;
22040;SDS011;11184;52.444;13.578;2022-07-29T09:30:10;5.90;;;1.48;;
22040;SDS011;11184;52.444;13.578;2022-07-29T09:32:58;3.20;;;1.83;;
22040;SDS011;11184;52.444;13.578;2022-07-29T09:35:44;1.80;;;1.10;;
22040;SDS011;11184;52.444;13.578;2022-07-29T09:38:29;6.40;;;1.38;;
22040;SDS011;11184;52.444;13.578;2022-07-29T09:41:14;1.95;;;1.42;;
22040;SDS011;11184;52.444;13.578;2022-07-29T09:43:59;1.80;;;0.98;;
22040;SDS011;11184;52.444;13.578;2022-07-29T09:47:01;3.85;;;1.02;;
22040;SDS011;11184;52.444;13.578;2022-07-29T09:49:50;3.30;;;1.17;;
22040;SDS011;11184;52.444;13.578;2022-07-29T09:52:44;5.70;;;1.30;;
22040;SDS011;11184;52.444;13.578;2022-07-29T09:55:28;2.67;;;0.88;;
22040;SDS011;11184;52.444;13.578;2022-07-29T09:58:20;3.88;;;1.65;;
22040;SDS011;11184;52.444;13.578;2022-07-29T10:01:05;2.90;;;1.33;;
22040;SDS011;11184;52.444;13.578;2022-07-29T10:03:50;2.58;;;1.15;;
22040;SDS011;11184;52.444;13.578;2022-07-29T10:06:35;5.40;;;0.90;;
22040;SDS011;11184;52.444;13.578;2022-07-29T10:09:39;2.50;;;1.30;;
22040;SDS011;11184;52.444;13.578;2022-07-29T10:12:33;5.18;;;1.23;;
22040;SDS011;11184;52.444;13.578;2022-07-29T10:15:33;2.08;;;1.30;;
22040;SDS011;11184;52.444;13.578;2022-07-29T10:18:22;5.18;;;1.45;;
22040;SDS011;11184;52.444;13.578;2022-07-29T10:21:07;4.93;;;1.13;;
22040;SDS011;11184;52.444;13.578;2022-07-29T10:23:53;2.50;;;1.42;;
22040;SDS011;11184;52.444;13.578;2022-07-29T10:26:38;1.35;;;0.75;;
22040;SDS011;11184;52.444;13.578;2022-07-29T10:29:24;2.38;;;1.00;;
22040;SDS011;11184;52.444;13.578;2022-07-29T10:35:01;5.95;;;1.60;;
22040;SDS011;11184;52.444;13.578;2022-07-29T10:37:59;3.17;;;1.02;;
22040;SDS011;11184;52.444;13.578;2022-07-29T10:41:12;3.67;;;1.88;;
22040;SDS011;11184;52.444;13.578;2022-07-29T10:44:17;6.50;;;1.42;;
22040;SDS011;11184;52.444;13.578;2022-07-29T10:47:02;5.32;;;1.27;;
22040;SDS011;11184;52.444;13.578;2022-07-29T10:49:54;6.53;;;1.83;;
22040;SDS011;11184;52.444;13.578;2022-07-29T10:52:51;2.30;;;0.90;;
22040;SDS011;11184;52.444;13.578;2022-07-29T10:55:37;2.35;;;1.55;;
22040;SDS011;11184;52.444;13.578;2022-07-29T10:58:26;5.65;;;1.23;;
22040;SDS011;11184;52.444;13.578;2022-07-29T11:01:27;4.40;;;1.63;;
22040;SDS011;11184;52.444;13.578;2022-07-29T11:04:12;5.78;;;1.20;;
22040;SDS011;11184;52.444;13.578;2022-07-29T11:12:52;3.45;;;1.00;;
22040;SDS011;11184;52.444;13.578;2022-07-29T11:15:52;3.10;;;1.35;;
22040;SDS011;11184;52.444;13.578;2022-07-29T11:19:18;2.45;;;1.27;;
22040;SDS011;11184;52.444;13.578;2022-07-29T11:21:46;4.07;;;1.17;;
22040;SDS011;11184;52.444;13.578;2022-07-29T11:24:31;2.80;;;1.23;;
22040;SDS011;11184;52.444;13.578;2022-07-29T11:27:16;3.10;;;1.10;;
22040;SDS011;11184;52.444;13.578;2022-07-29T11:30:03;8.50;;;1.58;;
22040;SDS011;11184;52.444;13.578;2022-07-29T11:32:48;2.75;;;1.63;;
22040;SDS011;11184;52.444;13.578;2022-07-29T11:35:33;5.03;;;1.60;;
22040;SDS011;11184;52.444;13.578;2022-07-29T11:41:25;9.95;;;1.75;;
22040;SDS011;11184;52.444;13.578;2022-07-29T11:44:10;5.88;;;1.92;;
22040;SDS011;11184;52.444;13.578;2022-07-29T11:46:54;10.52;;;1.50;;
22040;SDS011;11184;52.444;13.578;2022-07-29T11:49:40;7.32;;;2.13;;
22040;SDS011;11184;52.444;13.578;2022-07-29T11:52:47;3.35;;;1.75;;
22040;SDS011;11184;52.444;13.578;2022-07-29T11:55:32;4.90;;;2.28;;
22040;SDS011;11184;52.444;13.578;2022-07-29T11:58:22;3.15;;;1.52;;
22040;SDS011;11184;52.444;13.578;2022-07-29T12:01:07;2.75;;;1.77;;
22040;SDS011;11184;52.444;13.578;2022-07-29T12:04:01;5.70;;;1.83;;
22040;SDS011;11184;52.444;13.578;2022-07-29T12:06:50;6.28;;;1.73;;
22040;SDS011;11184;52.444;13.578;2022-07-29T12:09:34;2.03;;;1.75;;
22040;SDS011;11184;52.444;13.578;2022-07-29T12:12:21;4.72;;;2.42;;
22040;SDS011;11184;52.444;13.578;2022-07-29T12:15:13;4.13;;;1.90;;
22040;SDS011;11184;52.444;13.578;2022-07-29T12:17:58;8.63;;;2.15;;
22040;SDS011;11184;52.444;13.578;2022-07-29T12:20:43;4.20;;;1.73;;
22040;SDS011;11184;52.444;13.578;2022-07-29T12:23:28;6.63;;;1.67;;
22040;SDS011;11184;52.444;13.578;2022-07-29T12:26:12;7.32;;;2.03;;
22040;SDS011;11184;52.444;13.578;2022-07-29T12:28:57;4.20;;;2.55;;
22040;SDS011;11184;52.444;13.578;2022-07-29T12:31:42;5.93;;;2.10;;
22040;SDS011;11184;52.444;13.578;2022-07-29T12:34:27;4.03;;;2.67;;
22040;SDS011;11184;52.444;13.578;2022-07-29T12:37:12;4.45;;;1.95;;
22040;SDS011;11184;52.444;13.578;2022-07-29T12:39:57;2.58;;;1.83;;
22040;SDS011;11184;52.444;13.578;2022-07-29T12:45:49;2.70;;;2.17;;
22040;SDS011;11184;52.444;13.578;2022-07-29T12:48:34;2.60;;;1.58;;
22040;SDS011;11184;52.444;13.578;2022-07-29T12:51:29;2.15;;;1.52;;
22040;SDS011;11184;52.444;13.578;2022-07-29T12:54:15;4.10;;;1.58;;
22040;SDS011;11184;52.444;13.578;2022-07-29T12:56:59;4.90;;;2.33;;
22040;SDS011;11184;52.444;13.578;2022-07-29T12:59:44;8.07;;;1.92;;
22040;SDS011;11184;52.444;13.578;2022-07-29T13:02:29;5.70;;;2.70;;
22040;SDS011;11184;52.444;13.578;2022-07-29T13:05:14;4.45;;;1.90;;
22040;SDS011;11184;52.444;13.578;2022-07-29T13:08:09;4.22;;;2.20;;
22040;SDS011;11184;52.444;13.578;2022-07-29T13:10:54;3.85;;;1.73;;
22040;SDS011;11184;52.444;13.578;2022-07-29T13:13:51;3.35;;;2.03;;
22040;SDS011;11184;52.444;13.578;2022-07-29T13:16:36;4.00;;;2.38;;
22040;SDS011;11184;52.444;13.578;2022-07-29T13:19:31;2.42;;;1.92;;
22040;SDS011;11184;52.444;13.578;2022-07-29T13:22:20;4.13;;;1.80;;
22040;SDS011;11184;52.444;13.578;2022-07-29T13:25:05;4.25;;;2.00;;
22040;SDS011;11184;52.444;13.578;2022-07-29T13:27:50;2.15;;;1.60;;
22040;SDS011;11184;52.444;13.578;2022-07-29T13:30:34;4.28;;;1.77;;
22040;SDS011;11184;52.444;13.578;2022-07-29T13:33:19;4.32;;;2.10;;
22040;SDS011;11184;52.444;13.578;2022-07-29T13:36:03;6.82;;;2.33;;
22040;SDS011;11184;52.444;13.578;2022-07-29T13:38:48;2.58;;;2.03;;
22040;SDS011;11184;52.444;13.578;2022-07-29T13:41:33;1.90;;;1.52;;
22040;SDS011;11184;52.444;13.578;2022-07-29T13:44:17;2.80;;;1.77;;
22040;SDS011;11184;52.444;13.578;2022-07-29T13:47:02;4.80;;;2.22;;
22040;SDS011;11184;52.444;13.578;2022-07-29T13:49:46;2.58;;;1.80;;
22040;SDS011;11184;52.444;13.578;2022-07-29T13:52:31;3.35;;;1.70;;
22040;SDS011;11184;52.444;13.578;2022-07-29T13:55:16;2.83;;;1.92;;
22040;SDS011;11184;52.444;13.578;2022-07-29T13:58:01;4.10;;;1.83;;
22040;SDS011;11184;52.444;13.578;2022-07-29T14:00:46;6.22;;;2.15;;
22040;SDS011;11184;52.444;13.578;2022-07-29T14:03:30;3.85;;;1.60;;
22040;SDS011;11184;52.444;13.578;2022-07-29T14:06:15;4.25;;;2.13;;
22040;SDS011;11184;52.444;13.578;2022-07-29T14:09:00;4.95;;;2.00;;
22040;SDS011;11184;52.444;13.578;2022-07-29T14:11:44;5.22;;;2.25;;
22040;SDS011;11184;52.444;13.578;2022-07-29T14:14:29;6.03;;;2.28;;
22040;SDS011;11184;52.444;13.578;2022-07-29T14:17:15;3.20;;;2.03;;
22040;SDS011;11184;52.444;13.578;2022-07-29T14:20:00;3.88;;;2.00;;
22040;SDS011;11184;52.444;13.578;2022-07-29T14:22:45;2.53;;;1.55;;
22040;SDS011;11184;52.444;13.578;2022-07-29T14:25:29;2.90;;;2.10;;
22040;SDS011;11184;52.444;13.578;2022-07-29T14:28:14;2.83;;;1.77;;
22040;SDS011;11184;52.444;13.578;2022-07-29T14:30:58;3.90;;;1.83;;
22040;SDS011;11184;52.444;13.578;2022-07-29T14:33:44;5.32;;;1.75;;
22040;SDS011;11184;52.444;13.578;2022-07-29T14:36:29;4.32;;;2.00;;
22040;SDS011;11184;52.444;13.578;2022-07-29T14:39:13;5.93;;;1.80;;
22040;SDS011;11184;52.444;13.578;2022-07-29T14:41:59;5.07;;;1.83;;
22040;SDS011;11184;52.444;13.578;2022-07-29T14:44:44;3.72;;;2.53;;
22040;SDS011;11184;52.444;13.578;2022-07-29T14:47:28;3.50;;;1.67;;
22040;SDS011;11184;52.444;13.578;2022-07-29T14:50:13;2.17;;;1.98;;
22040;SDS011;11184;52.444;13.578;2022-07-29T14:53:00;4.65;;;1.60;;
22040;SDS011;11184;52.444;13.578;2022-07-29T14:55:45;5.00;;;4.50;;
22040;SDS011;11184;52.444;13.578;2022-07-29T14:58:30;3.40;;;1.60;;
22040;SDS011;11184;52.444;13.578;2022-07-29T15:01:14;7.80;;;1.67;;
22040;SDS011;11184;52.444;13.578;2022-07-29T15:03:59;4.18;;;1.75;;
22040;SDS011;11184;52.444;13.578;2022-07-29T15:06:43;3.65;;;1.83;;
22040;SDS011;11184;52.444;13.578;2022-07-29T15:09:28;2.63;;;1.90;;
22040;SDS011;11184;52.444;13.578;2022-07-29T15:12:13;3.88;;;1.63;;
22040;SDS011;11184;52.444;13.578;2022-07-29T15:14:57;3.55;;;1.85;;
22040;SDS011;11184;52.444;13.578;2022-07-29T15:17:42;3.67;;;1.65;;
22040;SDS011;11184;52.444;13.578;2022-07-29T15:20:26;4.03;;;1.52;;
22040;SDS011;11184;52.444;13.578;2022-07-29T15:23:11;3.75;;;1.60;;
22040;SDS011;11184;52.444;13.578;2022-07-29T15:25:56;1.25;;;1.08;;
22040;SDS011;11184;52.444;13.578;2022-07-29T15:28:41;1.70;;;1.40;;
22040;SDS011;11184;52.444;13.578;2022-07-29T15:31:26;4.32;;;1.30;;
22040;SDS011;11184;52.444;13.578;2022-07-29T15:34:10;4.50;;;1.30;;
22040;SDS011;11184;52.444;13.578;2022-07-29T15:36:55;2.97;;;2.00;;
22040;SDS011;11184;52.444;13.578;2022-07-29T15:39:39;7.85;;;1.70;;
22040;SDS011;11184;52.444;13.578;2022-07-29T15:42:24;4.53;;;1.50;;
22040;SDS011;11184;52.444;13.578;2022-07-29T15:45:08;2.90;;;1.77;;
22040;SDS011;11184;52.444;13.578;2022-07-29T15:47:53;5.72;;;1.67;;
22040;SDS011;11184;52.444;13.578;2022-07-29T15:50:38;4.10;;;1.40;;
22040;SDS011;11184;52.444;13.578;2022-07-29T15:53:23;3.95;;;1.48;;
22040;SDS011;11184;52.444;13.578;2022-07-29T15:56:08;4.25;;;0.98;;
22040;SDS011;11184;52.444;13.578;2022-07-29T15:58:52;2.97;;;1.77;;
22040;SDS011;11184;52.444;13.578;2022-07-29T16:01:37;3.08;;;0.93;;
22040;SDS011;11184;52.444;13.578;2022-07-29T16:04:22;1.70;;;1.23;;
22040;SDS011;11184;52.444;13.578;2022-07-29T16:07:06;4.15;;;1.35;;
22040;SDS011;11184;52.444;13.578;2022-07-29T16:09:51;2.97;;;1.65;;
22040;SDS011;11184;52.444;13.578;2022-07-29T16:12:36;7.35;;;1.48;;
22040;SDS011;11184;52.444;13.578;2022-07-29T16:15:20;13.20;;;1.67;;
22040;SDS011;11184;52.444;13.578;2022-07-29T16:18:05;5.30;;;1.27;;
22040;SDS011;11184;52.444;13.578;2022-07-29T16:20:51;1.30;;;1.10;;
22040;SDS011;11184;52.444;13.578;2022-07-29T16:23:36;1.70;;;1.10;;
22040;SDS011;11184;52.444;13.578;2022-07-29T16:26:20;6.97;;;1.40;;
22040;SDS011;11184;52.444;13.578;2022-07-29T16:29:05;4.88;;;1.45;;
22040;SDS011;11184;52.444;13.578;2022-07-29T16:31:50;2.53;;;1.85;;
22040;SDS011;11184;52.444;13.578;2022-07-29T16:34:35;3.70;;;1.10;;
22040;SDS011;11184;52.444;13.578;2022-07-29T16:37:20;4.15;;;1.30;;
22040;SDS011;11184;52.444;13.578;2022-07-29T16:40:05;3.80;;;1.45;;
22040;SDS011;11184;52.444;13.578;2022-07-29T16:42:50;2.65;;;1.25;;
22040;SDS011;11184;52.444;13.578;2022-07-29T16:45:35;1.95;;;1.73;;
22040;SDS011;11184;52.444;13.578;2022-07-29T16:48:19;2.67;;;1.65;;
22040;SDS011;11184;52.444;13.578;2022-07-29T16:51:04;2.65;;;1.25;;